createdAt,value
2022-09-15T00:00:32.852Z,3.13
2022-09-15T00:02:59.903Z,3.72
2022-09-15T00:05:27.177Z,3.20
2022-09-15T00:07:54.253Z,3.50
2022-09-15T00:10:21.421Z,3.65
2022-09-15T00:12:48.426Z,3.20
2022-09-15T00:15:15.920Z,3.58
2022-09-15T00:17:43.348Z,3.57
2022-09-15T00:20:10.940Z,3.40
2022-09-15T00:22:38.121Z,3.45
2022-09-15T00:25:06.035Z,3.33
2022-09-15T00:27:33.321Z,3.40
2022-09-15T00:30:00.384Z,3.30
2022-09-15T00:32:27.763Z,3.50
2022-09-15T00:34:55.024Z,3.60
2022-09-15T00:37:22.072Z,3.40
2022-09-15T00:39:49.119Z,3.63
2022-09-15T00:42:19.621Z,3.77
2022-09-15T00:44:46.545Z,3.75
2022-09-15T00:47:19.509Z,3.90
2022-09-15T00:49:49.126Z,3.60
2022-09-15T00:52:16.311Z,3.40
2022-09-15T00:55:02.253Z,3.43
2022-09-15T00:57:49.558Z,3.58
2022-09-15T01:00:18.596Z,3.17
2022-09-15T01:02:46.381Z,3.53
2022-09-15T01:05:14.373Z,4.00
2022-09-15T01:07:47.552Z,3.47
2022-09-15T01:10:34.718Z,3.97
2022-09-15T01:13:03.350Z,3.70
2022-09-15T01:15:42.185Z,3.67
2022-09-15T01:18:15.150Z,3.95
2022-09-15T01:20:52.020Z,3.70
2022-09-15T01:23:31.339Z,3.30
2022-09-15T01:26:13.745Z,3.97
2022-09-15T01:28:49.934Z,3.50
2022-09-15T01:31:23.597Z,3.25
2022-09-15T01:34:06.022Z,3.40
2022-09-15T01:36:41.894Z,3.45
2022-09-15T01:39:25.821Z,3.55
2022-09-15T01:41:58.942Z,3.38
2022-09-15T01:44:41.034Z,3.55
2022-09-15T01:47:09.098Z,3.67
2022-09-15T01:49:51.293Z,3.90
2022-09-15T01:52:19.985Z,3.88
2022-09-15T01:54:49.251Z,3.65
2022-09-15T01:57:17.399Z,3.90
2022-09-15T01:59:44.522Z,3.70
2022-09-15T02:02:14.213Z,3.90
2022-09-15T02:04:46.989Z,3.33
2022-09-15T02:07:20.649Z,3.75
2022-09-15T02:10:11.418Z,3.63
2022-09-15T02:12:42.243Z,3.60
2022-09-15T02:15:14.976Z,3.80
2022-09-15T02:17:45.721Z,4.05
2022-09-15T02:20:25.673Z,3.80
2022-09-15T02:22:55.763Z,3.58
2022-09-15T02:25:26.862Z,3.37
2022-09-15T02:27:56.513Z,3.70
2022-09-15T02:30:24.098Z,3.90
2022-09-15T02:32:54.385Z,3.70
2022-09-15T02:35:22.315Z,4.13
2022-09-15T02:37:49.942Z,4.20
2022-09-15T02:40:17.054Z,3.83
2022-09-15T02:42:52.243Z,3.90
2022-09-15T02:45:20.196Z,3.83
2022-09-15T02:47:47.227Z,3.92
2022-09-15T02:50:14.248Z,3.83
2022-09-15T02:52:41.546Z,3.97
2022-09-15T02:55:09.046Z,3.78
2022-09-15T02:57:36.130Z,3.80
2022-09-15T03:00:14.685Z,4.05
2022-09-15T03:02:42.798Z,3.87
2022-09-15T03:05:09.843Z,3.78
2022-09-15T03:07:38.084Z,3.83
2022-09-15T03:10:05.998Z,4.25
2022-09-15T03:12:39.724Z,3.90
2022-09-15T03:15:07.796Z,4.30
2022-09-15T03:17:35.706Z,3.90
2022-09-15T03:20:07.330Z,4.40
2022-09-15T03:22:34.502Z,4.28
2022-09-15T03:25:01.807Z,3.63
2022-09-15T03:27:29.795Z,4.03
2022-09-15T03:29:56.818Z,4.10
2022-09-15T03:32:24.027Z,3.83
2022-09-15T03:34:53.229Z,4.03
2022-09-15T03:37:22.570Z,3.90
2022-09-15T03:39:49.739Z,4.40
2022-09-15T03:42:16.758Z,3.95
2022-09-15T03:44:43.758Z,3.88
2022-09-15T03:47:10.926Z,3.80
2022-09-15T03:49:38.526Z,3.67
2022-09-15T03:52:05.520Z,3.97
2022-09-15T03:54:32.905Z,4.18
2022-09-15T03:56:59.897Z,4.05
2022-09-15T03:59:26.950Z,4.22
2022-09-15T04:01:53.938Z,4.00
2022-09-15T04:04:20.933Z,4.20
2022-09-15T04:06:48.025Z,3.95
2022-09-15T04:09:15.209Z,3.88
2022-09-15T04:11:42.840Z,3.95
2022-09-15T04:14:09.903Z,4.00
2022-09-15T04:16:37.068Z,3.80
2022-09-15T04:19:04.892Z,3.67
2022-09-15T04:21:32.251Z,4.00
2022-09-15T04:23:59.308Z,3.55
2022-09-15T04:26:28.334Z,3.83
2022-09-15T04:28:55.539Z,4.40
2022-09-15T04:31:22.703Z,3.90
2022-09-15T04:33:52.124Z,3.80
2022-09-15T04:36:21.186Z,4.30
2022-09-15T04:38:48.564Z,4.13
2022-09-15T04:41:15.512Z,3.93
2022-09-15T04:43:43.353Z,4.20
2022-09-15T04:46:10.978Z,4.00
2022-09-15T04:48:37.966Z,4.47
2022-09-15T04:51:06.196Z,4.10
2022-09-15T04:53:33.450Z,3.73
2022-09-15T04:56:07.875Z,4.07
2022-09-15T04:58:39.098Z,4.18
2022-09-15T05:01:10.364Z,3.90
2022-09-15T05:03:37.873Z,4.20
2022-09-15T05:06:08.897Z,4.47
2022-09-15T05:08:36.442Z,4.25
2022-09-15T05:11:05.123Z,4.32
2022-09-15T05:13:33.193Z,4.30
2022-09-15T05:16:12.074Z,4.18
2022-09-15T05:18:39.823Z,4.30
2022-09-15T05:21:07.504Z,4.45
2022-09-15T05:23:35.349Z,4.90
2022-09-15T05:26:03.953Z,4.38
2022-09-15T05:28:32.148Z,4.28
2022-09-15T05:30:59.465Z,4.57
2022-09-15T05:33:26.577Z,4.55
2022-09-15T05:35:57.672Z,4.68
2022-09-15T05:38:25.381Z,4.30
2022-09-15T05:40:52.443Z,4.38
2022-09-15T05:43:20.257Z,4.90
2022-09-15T05:45:56.433Z,4.50
2022-09-15T05:48:24.574Z,4.20
2022-09-15T05:50:52.837Z,4.18
2022-09-15T05:53:20.146Z,4.97
2022-09-15T05:55:47.228Z,4.67
2022-09-15T05:58:15.012Z,4.45
2022-09-15T06:00:42.462Z,4.82
2022-09-15T06:03:14.104Z,4.18
2022-09-15T06:05:41.353Z,4.50
2022-09-15T06:08:08.581Z,4.47
2022-09-15T06:10:35.759Z,4.55
2022-09-15T06:13:02.930Z,4.63
2022-09-15T06:15:30.868Z,4.20
2022-09-15T06:17:58.155Z,4.75
2022-09-15T06:20:25.601Z,4.70
2022-09-15T06:22:53.312Z,4.13
2022-09-15T06:25:20.310Z,4.72
2022-09-15T06:27:48.889Z,4.50
2022-09-15T06:30:16.049Z,4.35
2022-09-15T06:32:47.931Z,4.00
2022-09-15T06:35:15.613Z,4.45
2022-09-15T06:37:42.665Z,4.13
2022-09-15T06:40:10.225Z,4.10
2022-09-15T06:42:37.285Z,4.43
2022-09-15T06:45:04.508Z,4.20
2022-09-15T06:47:34.065Z,3.85
2022-09-15T06:50:01.224Z,4.07
2022-09-15T06:52:28.318Z,4.18
2022-09-15T06:54:55.372Z,4.30
2022-09-15T06:57:22.310Z,3.90
2022-09-15T06:59:49.365Z,4.22
2022-09-15T07:02:16.450Z,4.20
2022-09-15T07:04:43.607Z,3.88
2022-09-15T07:07:10.791Z,4.00
2022-09-15T07:09:41.178Z,4.20
2022-09-15T07:12:08.704Z,3.83
2022-09-15T07:14:35.645Z,4.00
2022-09-15T07:17:02.937Z,3.88
2022-09-15T07:19:29.893Z,4.32
2022-09-15T07:21:56.847Z,3.80
2022-09-15T07:24:23.850Z,3.90
2022-09-15T07:26:52.269Z,4.00
2022-09-15T07:29:19.310Z,4.07
2022-09-15T07:31:46.361Z,3.97
2022-09-15T07:34:13.325Z,3.97
2022-09-15T07:36:40.618Z,4.10
2022-09-15T07:39:07.558Z,4.22
2022-09-15T07:41:34.603Z,4.25
2022-09-15T07:44:01.686Z,4.05
2022-09-15T07:46:31.210Z,4.00
2022-09-15T07:48:58.366Z,4.10
2022-09-15T07:51:26.810Z,3.65
2022-09-15T07:53:54.026Z,4.22
2022-09-15T07:56:21.716Z,3.63
2022-09-15T07:58:49.260Z,4.00
2022-09-15T08:01:17.150Z,4.03
2022-09-15T08:03:52.047Z,4.07
2022-09-15T08:06:20.766Z,3.85
2022-09-15T08:08:49.044Z,3.88
2022-09-15T08:11:19.415Z,3.67
2022-09-15T08:13:47.476Z,4.18
2022-09-15T08:16:16.147Z,4.00
2022-09-15T08:18:44.233Z,3.70
2022-09-15T08:21:12.627Z,4.03
2022-09-15T08:23:39.856Z,3.73
2022-09-15T08:26:11.819Z,3.78
2022-09-15T08:28:40.888Z,4.32
2022-09-15T08:31:09.083Z,3.92
2022-09-15T08:33:36.382Z,3.70
2022-09-15T08:36:08.258Z,3.93
2022-09-15T08:38:35.483Z,3.80
2022-09-15T08:41:05.192Z,3.60
2022-09-15T08:43:38.459Z,3.72
2022-09-15T08:46:07.245Z,3.47
2022-09-15T08:48:37.889Z,4.03
2022-09-15T08:51:06.387Z,3.58
2022-09-15T08:53:40.552Z,4.05
2022-09-15T08:56:14.098Z,4.22
2022-09-15T08:58:41.244Z,3.75
2022-09-15T09:01:11.660Z,3.60
2022-09-15T09:03:41.968Z,3.90
2022-09-15T09:06:15.108Z,3.78
2022-09-15T09:08:56.235Z,3.60
2022-09-15T09:11:23.387Z,3.40
2022-09-15T09:13:53.613Z,3.70
2022-09-15T09:16:39.608Z,3.55
2022-09-15T09:19:06.630Z,3.28
2022-09-15T09:21:36.272Z,3.45
2022-09-15T09:24:03.612Z,3.20
2022-09-15T09:26:31.586Z,3.77
2022-09-15T09:28:59.936Z,4.20
2022-09-15T09:31:28.197Z,3.70
2022-09-15T09:34:10.236Z,3.55
2022-09-15T09:36:37.780Z,3.50
2022-09-15T09:39:05.196Z,2.90
2022-09-15T09:41:36.466Z,3.42
2022-09-15T09:44:05.771Z,3.08
2022-09-15T09:46:33.095Z,3.17
2022-09-15T09:49:03.283Z,2.90
2022-09-15T09:51:31.129Z,3.07
2022-09-15T09:54:04.041Z,2.70
2022-09-15T09:56:32.275Z,2.70
2022-09-15T09:58:59.358Z,3.10
2022-09-15T10:01:26.652Z,2.90
2022-09-15T10:04:12.556Z,3.10
2022-09-15T10:06:40.594Z,3.08
2022-09-15T10:09:18.109Z,3.60
2022-09-15T10:11:48.162Z,2.92
2022-09-15T10:14:38.758Z,3.05
2022-09-15T10:17:10.271Z,3.30
2022-09-15T10:19:44.477Z,3.10
2022-09-15T10:22:30.376Z,2.92
2022-09-15T10:24:57.972Z,3.50
2022-09-15T10:27:30.430Z,3.20
2022-09-15T10:30:12.921Z,3.27
2022-09-15T10:32:42.686Z,2.88
2022-09-15T10:35:11.540Z,3.17
2022-09-15T10:37:57.354Z,2.90
2022-09-15T10:40:37.713Z,2.85
2022-09-15T10:43:11.755Z,2.87
2022-09-15T10:45:39.844Z,3.40
2022-09-15T10:48:31.740Z,3.20
2022-09-15T10:51:03.869Z,2.58
2022-09-15T10:53:34.078Z,2.80
2022-09-15T10:56:20.157Z,3.03
2022-09-15T10:58:47.422Z,3.10
2022-09-15T11:01:23.946Z,2.45
2022-09-15T11:03:54.251Z,3.55
2022-09-15T11:06:30.274Z,3.30
2022-09-15T11:09:13.076Z,3.27
2022-09-15T11:11:49.274Z,2.92
2022-09-15T11:14:30.289Z,2.83
2022-09-15T11:16:57.421Z,3.08
2022-09-15T11:19:27.581Z,2.80
2022-09-15T11:21:57.952Z,3.17
2022-09-15T11:24:28.118Z,2.75
2022-09-15T11:26:57.510Z,3.20
2022-09-15T11:29:30.583Z,2.53
2022-09-15T11:32:04.753Z,3.10
2022-09-15T11:34:54.822Z,3.03
2022-09-15T11:37:25.072Z,2.95
2022-09-15T11:40:05.625Z,2.80
2022-09-15T11:42:35.999Z,2.97
2022-09-15T11:45:03.490Z,3.00
2022-09-15T11:47:33.489Z,2.83
2022-09-15T11:50:10.024Z,2.90
2022-09-15T11:53:12.884Z,3.00
2022-09-15T11:55:43.589Z,2.55
2022-09-15T11:58:23.109Z,3.08
2022-09-15T12:00:53.606Z,3.30
2022-09-15T12:03:43.257Z,3.47
2022-09-15T12:06:14.691Z,3.05
2022-09-15T12:08:51.085Z,2.92
2022-09-15T12:11:20.474Z,3.22
2022-09-15T12:13:48.008Z,3.83
2022-09-15T12:16:16.195Z,3.35
2022-09-15T12:18:58.548Z,3.47
2022-09-15T12:21:31.499Z,3.42
2022-09-15T12:23:58.565Z,3.45
2022-09-15T12:26:26.600Z,2.70
2022-09-15T12:28:58.700Z,2.83
2022-09-15T12:31:25.920Z,2.88
2022-09-15T12:33:57.034Z,3.20
2022-09-15T12:36:38.649Z,3.10
2022-09-15T12:39:26.083Z,2.97
2022-09-15T12:41:56.011Z,2.13
2022-09-15T12:44:35.061Z,2.92
2022-09-15T12:47:02.909Z,2.97
2022-09-15T12:49:32.652Z,2.72
2022-09-15T12:52:00.929Z,2.73
2022-09-15T12:54:33.128Z,2.90
2022-09-15T12:57:00.706Z,2.70
2022-09-15T12:59:28.456Z,2.63
2022-09-15T13:01:56.180Z,2.53
2022-09-15T13:04:41.818Z,2.73
2022-09-15T13:07:15.258Z,2.70
2022-09-15T13:09:59.449Z,2.70
2022-09-15T13:12:30.917Z,3.15
2022-09-15T13:14:59.942Z,2.70
2022-09-15T13:17:27.253Z,2.73
2022-09-15T13:19:57.389Z,3.10
2022-09-15T13:22:30.245Z,2.50
2022-09-15T13:25:06.703Z,2.97
2022-09-15T13:27:45.073Z,2.58
2022-09-15T13:30:21.498Z,2.33
2022-09-15T13:32:52.419Z,2.40
2022-09-15T13:35:28.753Z,2.45
2022-09-15T13:38:08.287Z,2.60
2022-09-15T13:41:12.095Z,2.65
2022-09-15T13:43:42.411Z,2.20
2022-09-15T13:46:18.803Z,2.50
2022-09-15T13:48:49.833Z,2.25
2022-09-15T13:51:23.348Z,2.20
2022-09-15T13:53:56.508Z,2.40
2022-09-15T13:56:27.715Z,2.83
2022-09-15T13:59:03.512Z,2.42
2022-09-15T14:01:38.737Z,2.28
2022-09-15T14:04:19.505Z,2.47
2022-09-15T14:06:51.391Z,2.05
2022-09-15T14:09:21.653Z,2.33
2022-09-15T14:11:50.537Z,2.50
2022-09-15T14:14:24.009Z,2.35
2022-09-15T14:16:51.226Z,2.28
2022-09-15T14:19:21.452Z,2.45
2022-09-15T14:21:49.162Z,2.00
2022-09-15T14:24:20.272Z,2.30
2022-09-15T14:26:48.227Z,2.00
2022-09-15T14:29:18.987Z,2.00
2022-09-15T14:31:47.311Z,1.98
2022-09-15T14:34:20.125Z,2.30
2022-09-15T14:37:02.066Z,1.92
2022-09-15T14:39:29.551Z,2.25
2022-09-15T14:41:57.065Z,1.70
2022-09-15T14:47:14.068Z,2.00
2022-09-15T14:49:41.132Z,2.45
2022-09-15T14:52:29.543Z,1.92
2022-09-15T14:54:59.721Z,1.85
2022-09-15T14:57:31.009Z,1.98
2022-09-15T15:00:02.556Z,2.03
2022-09-15T15:02:38.555Z,2.08
2022-09-15T15:05:11.032Z,1.80
2022-09-15T15:07:38.685Z,1.75
2022-09-15T15:10:07.477Z,1.70
2022-09-15T15:12:36.101Z,1.77
2022-09-15T15:15:04.610Z,1.75
2022-09-15T15:17:36.552Z,1.77
2022-09-15T15:20:06.751Z,2.10
2022-09-15T15:22:34.347Z,2.00
2022-09-15T15:25:02.148Z,1.93
2022-09-15T15:27:32.479Z,1.88
2022-09-15T15:30:18.481Z,1.90
2022-09-15T15:32:45.730Z,1.88
2022-09-15T15:35:15.096Z,1.90
2022-09-15T15:37:42.199Z,1.80
2022-09-15T15:40:21.238Z,2.10
2022-09-15T15:43:00.066Z,2.15
2022-09-15T15:45:29.987Z,1.90
2022-09-15T15:47:57.417Z,2.17
2022-09-15T15:50:26.178Z,1.53
2022-09-15T15:52:53.372Z,1.80
2022-09-15T15:55:22.118Z,2.00
2022-09-15T15:57:51.206Z,1.70
2022-09-15T16:00:22.197Z,2.20
2022-09-15T16:02:52.754Z,1.70
2022-09-15T16:05:20.795Z,1.88
2022-09-15T16:07:49.761Z,1.88
2022-09-15T16:10:18.742Z,2.05
2022-09-15T16:12:45.958Z,1.90
2022-09-15T16:15:14.332Z,2.03
2022-09-15T16:17:45.927Z,1.83
2022-09-15T16:20:19.692Z,2.40
2022-09-15T16:22:49.143Z,2.10
2022-09-15T16:25:18.228Z,2.13
2022-09-15T16:27:45.429Z,1.90
2022-09-15T16:30:12.546Z,1.90
2022-09-15T16:32:40.536Z,2.17
2022-09-15T16:35:18.717Z,2.30
2022-09-15T16:37:45.938Z,2.30
2022-09-15T16:40:13.219Z,2.10
2022-09-15T16:42:40.385Z,2.20
2022-09-15T16:45:17.538Z,2.33
2022-09-15T16:47:44.658Z,2.10
2022-09-15T16:50:11.997Z,2.90
2022-09-15T16:52:39.475Z,2.77
2022-09-15T16:55:19.724Z,3.03
2022-09-15T16:57:47.004Z,2.88
2022-09-15T17:00:14.660Z,2.72
2022-09-15T17:02:41.650Z,2.92
2022-09-15T17:05:15.321Z,3.13
2022-09-15T17:07:42.678Z,2.90
2022-09-15T17:10:10.055Z,3.15
2022-09-15T17:12:38.064Z,3.28
2022-09-15T17:15:19.836Z,2.83
2022-09-15T17:17:47.786Z,2.83
2022-09-15T17:20:15.505Z,2.97
2022-09-15T17:22:42.635Z,3.10
2022-09-15T17:25:27.003Z,2.60
2022-09-15T17:27:54.119Z,3.08
2022-09-15T17:30:22.480Z,2.93
2022-09-15T17:32:49.936Z,3.08
2022-09-15T17:35:22.594Z,2.38
2022-09-15T17:37:51.097Z,2.63
2022-09-15T17:40:19.595Z,2.70
2022-09-15T17:42:47.776Z,2.63
2022-09-15T17:45:20.252Z,2.75
2022-09-15T17:47:48.000Z,2.40
2022-09-15T17:50:16.638Z,2.63
2022-09-15T17:52:44.266Z,2.80
2022-09-15T17:55:12.788Z,2.50
2022-09-15T17:57:39.953Z,2.10
2022-09-15T18:00:07.772Z,2.10
2022-09-15T18:02:35.102Z,2.50
2022-09-15T18:05:03.642Z,2.17
2022-09-15T18:07:30.956Z,2.47
2022-09-15T18:09:59.911Z,2.33
2022-09-15T18:12:27.460Z,2.03
2022-09-15T18:14:54.759Z,2.58
2022-09-15T18:17:21.884Z,1.92
2022-09-15T18:19:50.126Z,2.27
2022-09-15T18:22:17.193Z,2.15
2022-09-15T18:24:44.214Z,2.42
2022-09-15T18:27:11.365Z,2.40
2022-09-15T18:29:38.320Z,2.13
2022-09-15T18:32:05.316Z,2.20
2022-09-15T18:34:32.823Z,2.13
2022-09-15T18:36:59.780Z,2.20
2022-09-15T18:39:26.887Z,2.28
2022-09-15T18:41:54.055Z,2.10
2022-09-15T18:44:21.794Z,2.07
2022-09-15T18:46:48.858Z,2.13
2022-09-15T18:49:16.020Z,2.00
2022-09-15T18:51:58.291Z,2.00
2022-09-15T18:54:25.305Z,2.00
2022-09-15T18:56:52.322Z,1.90
2022-09-15T18:59:19.564Z,1.98
2022-09-15T19:01:47.168Z,1.98
2022-09-15T19:04:14.337Z,2.22
2022-09-15T19:06:41.395Z,2.08
2022-09-15T19:09:08.569Z,1.80
2022-09-15T19:11:35.547Z,2.00
2022-09-15T19:14:02.552Z,1.77
2022-09-15T19:16:46.637Z,2.10
2022-09-15T19:19:16.971Z,2.10
2022-09-15T19:21:44.252Z,2.10
2022-09-15T19:24:11.267Z,1.85
2022-09-15T19:26:38.332Z,1.88
2022-09-15T19:29:05.790Z,2.10
2022-09-15T19:31:32.756Z,1.98
2022-09-15T19:33:59.798Z,1.90
2022-09-15T19:36:29.007Z,2.00
2022-09-15T19:39:00.499Z,1.95
2022-09-15T19:41:27.589Z,2.22
2022-09-15T19:43:54.959Z,2.03
2022-09-15T19:46:26.089Z,1.93
2022-09-15T19:48:53.668Z,1.95
2022-09-15T19:51:21.191Z,1.70
2022-09-15T19:53:48.360Z,1.90
2022-09-15T19:56:16.437Z,1.73
2022-09-15T19:58:43.996Z,2.00
2022-09-15T20:01:11.254Z,1.80
2022-09-15T20:03:38.429Z,2.08
2022-09-15T20:06:06.835Z,2.38
2022-09-15T20:08:34.267Z,2.05
2022-09-15T20:11:04.425Z,2.20
2022-09-15T20:13:31.315Z,2.05
2022-09-15T20:15:59.785Z,2.30
2022-09-15T20:18:27.274Z,1.98
2022-09-15T20:20:54.622Z,2.28
2022-09-15T20:23:21.621Z,2.00
2022-09-15T20:25:57.770Z,2.00
2022-09-15T20:28:24.773Z,2.10
2022-09-15T20:31:18.182Z,1.95
2022-09-15T20:33:45.858Z,2.10
2022-09-15T20:36:15.811Z,2.37
2022-09-15T20:38:43.287Z,2.08
2022-09-15T20:41:11.376Z,1.80
2022-09-15T20:43:39.016Z,2.08
2022-09-15T20:46:07.776Z,1.80
2022-09-15T20:48:36.618Z,1.80
2022-09-15T20:51:04.886Z,1.80
2022-09-15T20:53:32.582Z,1.85
2022-09-15T20:55:59.897Z,1.80
2022-09-15T20:58:27.326Z,1.90
2022-09-15T21:01:03.263Z,1.70
2022-09-15T21:03:30.539Z,1.70
2022-09-15T21:06:17.231Z,1.80
2022-09-15T21:08:45.294Z,2.00
2022-09-15T21:11:12.418Z,2.25
2022-09-15T21:13:40.460Z,2.20
2022-09-15T21:16:11.990Z,1.75
2022-09-15T21:18:39.692Z,3.85
2022-09-15T21:21:08.910Z,3.20
2022-09-15T21:23:40.817Z,2.83
2022-09-15T21:26:09.289Z,2.57
2022-09-15T21:28:36.552Z,2.33
2022-09-15T21:31:04.880Z,2.50
2022-09-15T21:33:32.307Z,2.67
2022-09-15T21:36:07.084Z,2.38
2022-09-15T21:38:34.629Z,2.13
2022-09-15T21:41:01.863Z,2.33
2022-09-15T21:43:29.829Z,2.50
2022-09-15T21:45:57.511Z,2.22
2022-09-15T21:48:24.974Z,2.08
2022-09-15T21:50:52.332Z,2.70
2022-09-15T21:53:20.181Z,2.22
2022-09-15T21:55:50.251Z,2.10
2022-09-15T21:58:21.450Z,1.88
2022-09-15T22:00:48.890Z,2.10
2022-09-15T22:03:16.214Z,2.17
2022-09-15T22:05:45.888Z,2.03
2022-09-15T22:08:13.876Z,2.22
2022-09-15T22:10:41.493Z,2.13
2022-09-15T22:13:09.132Z,1.88
2022-09-15T22:15:36.563Z,1.87
2022-09-15T22:18:04.164Z,2.17
2022-09-15T22:20:31.217Z,1.98
2022-09-15T22:23:01.717Z,2.17
2022-09-15T22:25:29.053Z,2.00
2022-09-15T22:27:56.326Z,1.90
2022-09-15T22:30:23.738Z,1.75
2022-09-15T22:32:50.756Z,1.83
2022-09-15T22:35:17.835Z,1.90
2022-09-15T22:37:45.010Z,2.00
2022-09-15T22:40:12.016Z,1.87
2022-09-15T22:42:39.207Z,1.88
2022-09-15T22:45:07.385Z,1.80
2022-09-15T22:47:34.425Z,1.58
2022-09-15T22:50:01.752Z,1.83
2022-09-15T22:52:28.676Z,1.70
2022-09-15T22:54:55.636Z,1.98
2022-09-15T22:57:22.806Z,1.80
2022-09-15T22:59:49.703Z,2.17
2022-09-15T23:02:16.963Z,2.20
2022-09-15T23:04:44.088Z,1.87
2022-09-15T23:07:11.224Z,1.55
2022-09-15T23:09:38.469Z,1.98
2022-09-15T23:12:09.940Z,1.88
2022-09-15T23:14:37.096Z,1.60
2022-09-15T23:17:04.049Z,1.90
2022-09-15T23:19:31.065Z,1.50
2022-09-15T23:21:58.025Z,1.83
2022-09-15T23:24:25.924Z,1.50
2022-09-15T23:26:52.945Z,2.00
2022-09-15T23:29:19.889Z,1.70
2022-09-15T23:31:47.264Z,1.58
2022-09-15T23:34:14.326Z,1.95
2022-09-15T23:36:41.297Z,1.70
2022-09-15T23:39:08.327Z,1.70
2022-09-15T23:41:36.940Z,1.50
2022-09-15T23:44:04.055Z,1.73
2022-09-15T23:46:31.275Z,1.90
2022-09-15T23:48:58.576Z,1.85
2022-09-15T23:51:25.730Z,1.70
2022-09-15T23:53:52.755Z,2.00
2022-09-15T23:56:19.816Z,2.00
2022-09-15T23:58:46.822Z,1.83
